Terminal Aerodrome Forecast
Issued by NWS

Home | Current Version | Previous Version | Text Only | Print | Product List | Glossary On
Versions: 1 2 3 4 5 6 7 8 9 10 11 12 13 14 15 16 17 18 19 20 21
804
FTUS43 KICT 260520
TAFHUT
TAF
KHUT 260520Z 2606/2706 02004KT P6SM OVC008
     FM260800 09003KT 2SM BR OVC004
      TEMPO 2609/2613 1/2SM FG OVC002
     FM261500 11005KT P6SM SCT010 BKN025
     FM261700 11012KT P6SM BKN060
     FM262300 10011KT P6SM VCTS BKN030CB
     FM270500 04010KT P6SM VCSH OVC012=

USA.gov is the U.S. government's official web portal to all federal, state and local government web resources and services.